Time;durP1;ratioP1;P1;durP2;ratioP2;P2;SDS_P1;SDS_P2;PMS_P1;PMS_P2;Temp;Humidity;BMP_temperature;BMP_pressure;BME280_temperature;BME280_humidity;BME280_pressure;Samples;Min_cycle;Max_cycle;Signal;HPM_P1;HPM_P2
2023/03/16 00:01:06;;;;;;;8.07;4.60;;;6.20;99.90;;;;;;10071625;28;20514;-55
2023/03/16 00:05:57;;;;;;;10.07;6.50;;;6.10;99.90;;;;;;10086726;28;20021;-60
2023/03/16 00:10:47;;;;;;;6.95;4.53;;;6.10;99.90;;;;;;10089836;28;20053;-59
2023/03/16 00:15:38;;;;;;;8.15;4.53;;;6.10;99.90;;;;;;10102763;28;20048;-59
2023/03/16 00:20:28;;;;;;;7.20;4.90;;;6.00;99.90;;;;;;10084208;28;20090;-60
2023/03/16 00:25:19;;;;;;;10.63;5.00;;;6.00;99.90;;;;;;10102401;28;20561;-65
2023/03/16 00:30:10;;;;;;;8.77;5.03;;;5.90;99.90;;;;;;10101667;28;21021;-59
2023/03/16 00:35:03;;;;;;;8.98;5.25;;;5.90;99.90;;;;;;10100868;28;20029;-56
2023/03/16 00:39:57;;;;;;;10.82;5.72;;;5.80;99.90;;;;;;10093956;28;20029;-58
2023/03/16 00:44:47;;;;;;;8.25;4.60;;;5.80;99.90;;;;;;10095807;28;20076;-57
2023/03/16 00:49:38;;;;;;;9.70;5.05;;;5.80;99.90;;;;;;10093511;28;20049;-56
2023/03/16 00:54:29;;;;;;;7.68;4.63;;;5.70;99.90;;;;;;10076798;28;20091;-55
2023/03/16 00:59:20;;;;;;;4.80;3.63;;;5.80;99.90;;;;;;10100957;28;20387;-60
2023/03/16 01:04:11;;;;;;;5.70;2.67;;;5.70;99.90;;;;;;10078390;28;20079;-66
2023/03/16 01:09:04;;;;;;;5.68;3.08;;;5.60;99.90;;;;;;10096001;28;20025;-58
2023/03/16 01:13:54;;;;;;;5.95;3.13;;;5.70;99.90;;;;;;10101122;28;20112;-63
2023/03/16 01:18:46;;;;;;;8.90;3.40;;;5.70;99.90;;;;;;10079888;28;20108;-61
2023/03/16 01:23:37;;;;;;;6.20;3.05;;;5.60;99.90;;;;;;10080873;28;20324;-70
2023/03/16 01:28:30;;;;;;;7.78;4.05;;;5.60;99.90;;;;;;10063430;28;20034;-61
2023/03/16 01:33:21;;;;;;;6.00;4.20;;;5.50;99.90;;;;;;10082407;28;20036;-58
2023/03/16 01:38:12;;;;;;;5.80;3.08;;;5.60;99.90;;;;;;10087621;28;20013;-58
2023/03/16 01:43:03;;;;;;;6.47;3.78;;;5.50;99.90;;;;;;10073853;28;20029;-56
2023/03/16 01:47:57;;;;;;;4.93;3.03;;;5.60;99.90;;;;;;10073640;28;20037;-56
2023/03/16 01:52:48;;;;;;;4.75;2.92;;;5.50;99.90;;;;;;10076797;28;20496;-57
2023/03/16 01:57:42;;;;;;;6.05;3.33;;;5.40;99.90;;;;;;10093791;28;20103;-59
2023/03/16 02:02:33;;;;;;;5.63;3.33;;;5.40;99.90;;;;;;10081249;28;20064;-63
2023/03/16 02:07:27;;;;;;;4.40;2.63;;;5.40;99.90;;;;;;10087309;28;20021;-58
2023/03/16 02:12:19;;;;;;;4.03;2.70;;;5.40;99.90;;;;;;10098737;28;20041;-60
2023/03/16 02:17:10;;;;;;;5.40;3.55;;;5.40;99.90;;;;;;10098714;28;20490;-65
2023/03/16 02:22:05;;;;;;;5.22;3.55;;;5.30;99.90;;;;;;10084028;28;20288;-60
2023/03/16 02:27:03;;;;;;;5.38;2.83;;;5.30;99.90;;;;;;10079429;28;20025;-62
2023/03/16 02:31:55;;;;;;;6.65;3.28;;;5.30;99.90;;;;;;10106630;28;20113;-59
2023/03/16 02:36:48;;;;;;;4.05;3.20;;;5.20;99.90;;;;;;10106689;28;20028;-58
2023/03/16 02:41:40;;;;;;;5.65;3.28;;;5.20;99.90;;;;;;10092893;28;20028;-58
2023/03/16 02:46:35;;;;;;;7.43;3.88;;;5.10;99.90;;;;;;10101880;28;20507;-58
2023/03/16 02:51:25;;;;;;;7.43;3.88;;;5.10;99.90;;;;;;10088181;28;20112;-59
2023/03/16 02:56:16;;;;;;;8.80;3.75;;;5.10;99.90;;;;;;10100534;28;20502;-59
2023/03/16 03:01:07;;;;;;;10.93;4.10;;;5.10;99.90;;;;;;10089780;28;20301;-58
2023/03/16 03:05:57;;;;;;;8.48;5.80;;;5.00;99.90;;;;;;10082776;28;20541;-62
2023/03/16 03:10:48;;;;;;;8.48;4.75;;;5.00;99.90;;;;;;10105106;28;20064;-64
2023/03/16 03:15:39;;;;;;;7.30;4.78;;;4.80;99.90;;;;;;10091972;28;20320;-58
2023/03/16 03:20:30;;;;;;;8.52;5.07;;;4.90;99.90;;;;;;10104479;28;20495;-59
2023/03/16 03:25:21;;;;;;;10.00;4.13;;;4.80;99.90;;;;;;10104654;28;20040;-58
2023/03/16 03:30:15;;;;;;;6.97;5.22;;;4.90;99.90;;;;;;10104768;28;20119;-60
2023/03/16 03:35:07;;;;;;;8.85;5.07;;;4.80;99.90;;;;;;10102939;28;20036;-61
2023/03/16 03:39:58;;;;;;;7.20;5.07;;;4.80;99.90;;;;;;10088102;28;20033;-58
2023/03/16 03:44:52;;;;;;;11.45;5.30;;;4.80;99.90;;;;;;10099400;28;20040;-57
2023/03/16 03:49:43;;;;;;;7.22;4.88;;;4.80;99.90;;;;;;10100071;28;20517;-63
2023/03/16 03:54:34;;;;;;;8.65;5.28;;;4.90;99.90;;;;;;10081442;28;20044;-59
2023/03/16 03:59:24;;;;;;;7.28;5.22;;;4.90;99.90;;;;;;10102211;28;20472;-61
2023/03/16 04:04:15;;;;;;;7.72;5.30;;;4.90;99.90;;;;;;10080567;28;20360;-58
2023/03/16 04:09:06;;;;;;;9.75;4.60;;;4.90;99.90;;;;;;10095144;28;20044;-52
2023/03/16 04:13:56;;;;;;;7.55;4.90;;;4.90;99.90;;;;;;10083142;28;20033;-59
2023/03/16 04:18:47;;;;;;;8.02;4.88;;;4.70;99.90;;;;;;10097715;28;20021;-56
2023/03/16 04:23:37;;;;;;;7.18;4.50;;;4.60;99.90;;;;;;10103194;28;20028;-56
2023/03/16 04:28:28;;;;;;;6.70;4.68;;;4.60;99.90;;;;;;10102056;28;20021;-57
2023/03/16 04:33:20;;;;;;;8.85;5.28;;;4.50;99.90;;;;;;10052980;28;20045;-54
2023/03/16 04:38:11;;;;;;;7.15;4.50;;;4.40;99.90;;;;;;10081965;28;20407;-57
2023/03/16 04:43:02;;;;;;;6.97;4.40;;;4.20;99.90;;;;;;10087271;28;20044;-57
2023/03/16 04:47:52;;;;;;;9.20;4.70;;;4.30;99.90;;;;;;10101057;28;20037;-55
2023/03/16 04:52:43;;;;;;;6.68;4.53;;;4.40;99.90;;;;;;10079097;28;20043;-57
2023/03/16 04:57:34;;;;;;;6.80;4.43;;;4.40;99.90;;;;;;10096531;28;20025;-55
2023/03/16 05:02:24;;;;;;;8.23;4.65;;;4.50;99.90;;;;;;10085183;28;20033;-58
2023/03/16 05:07:15;;;;;;;6.68;4.40;;;4.50;99.90;;;;;;10088806;28;20031;-62
2023/03/16 05:12:06;;;;;;;7.40;5.57;;;4.40;99.90;;;;;;10100704;28;20067;-59
2023/03/16 05:16:57;;;;;;;10.07;5.18;;;4.40;99.90;;;;;;10100507;28;20033;-58
2023/03/16 05:21:48;;;;;;;8.38;5.43;;;4.40;99.90;;;;;;10100482;28;20025;-54
2023/03/16 05:26:38;;;;;;;7.20;4.30;;;4.40;99.90;;;;;;10100748;28;20108;-53
2023/03/16 05:31:32;;;;;;;8.10;4.80;;;4.30;99.90;;;;;;10091953;28;20041;-58
2023/03/16 05:36:23;;;;;;;9.32;5.40;;;4.30;99.90;;;;;;10085868;28;20071;-59
2023/03/16 05:41:14;;;;;;;8.05;5.18;;;4.30;99.90;;;;;;10086744;28;20016;-59
2023/03/16 05:46:05;;;;;;;6.80;4.65;;;4.20;99.90;;;;;;10100426;28;20053;-55
2023/03/16 05:50:55;;;;;;;5.45;4.45;;;4.30;99.90;;;;;;10086240;28;20034;-55
2023/03/16 05:55:51;;;;;;;6.57;4.80;;;4.30;99.90;;;;;;10086842;28;20029;-59
2023/03/16 06:00:42;;;;;;;8.82;5.30;;;4.40;99.90;;;;;;10096041;28;20051;-62
2023/03/16 06:05:32;;;;;;;6.80;4.53;;;4.50;99.90;;;;;;10064571;28;20513;-59
2023/03/16 06:10:25;;;;;;;12.18;4.57;;;4.50;99.90;;;;;;10056104;28;20112;-59
2023/03/16 06:15:15;;;;;;;8.70;4.47;;;4.50;99.90;;;;;;10089571;28;20041;-58
2023/03/16 06:20:12;;;;;;;12.70;6.40;;;4.50;99.90;;;;;;10079487;28;20387;-57
2023/03/16 06:25:04;;;;;;;9.23;5.43;;;4.50;99.90;;;;;;10090514;28;20017;-59
2023/03/16 06:29:55;;;;;;;6.70;4.00;;;4.50;99.90;;;;;;10090537;28;20037;-60
2023/03/16 06:34:46;;;;;;;4.90;3.50;;;4.60;99.90;;;;;;10094816;28;20029;-60
2023/03/16 06:39:37;;;;;;;7.97;3.97;;;4.70;99.90;;;;;;10093364;28;20079;-57
2023/03/16 06:44:27;;;;;;;6.95;3.95;;;4.70;99.90;;;;;;10090592;28;20564;-55
2023/03/16 06:49:18;;;;;;;7.00;4.10;;;4.70;99.90;;;;;;10097429;28;20029;-59
2023/03/16 06:54:09;;;;;;;5.97;3.00;;;4.70;99.90;;;;;;10071917;28;20036;-56
2023/03/16 06:59:00;;;;;;;5.90;3.50;;;4.80;99.90;;;;;;10098403;28;20043;-57
2023/03/16 07:03:51;;;;;;;6.07;4.32;;;4.60;99.90;;;;;;10069578;28;20025;-55
2023/03/16 07:08:41;;;;;;;4.32;3.60;;;4.50;99.90;;;;;;10092931;28;20031;-54
2023/03/16 07:13:34;;;;;;;6.05;3.83;;;4.60;99.90;;;;;;10092549;28;20037;-56
2023/03/16 07:18:24;;;;;;;5.13;4.13;;;4.80;99.90;;;;;;10103503;28;20539;-60
2023/03/16 07:23:15;;;;;;;4.72;3.65;;;4.90;99.90;;;;;;10078863;28;20029;-56
2023/03/16 07:28:06;;;;;;;7.30;4.13;;;5.10;99.90;;;;;;10086359;28;20021;-61
2023/03/16 07:32:56;;;;;;;7.65;4.38;;;5.10;99.90;;;;;;10068308;28;20041;-62
2023/03/16 07:37:47;;;;;;;11.32;5.18;;;5.30;99.90;;;;;;10059673;28;20400;-60
2023/03/16 07:42:38;;;;;;;8.38;3.88;;;5.40;99.90;;;;;;10053084;28;20280;-62
2023/03/16 07:47:30;;;;;;;6.85;4.20;;;5.50;99.90;;;;;;10059991;28;20470;-63
2023/03/16 07:52:21;;;;;;;7.25;4.63;;;5.60;99.90;;;;;;10063375;28;20061;-62
2023/03/16 07:57:11;;;;;;;8.20;5.40;;;5.60;99.90;;;;;;10061503;28;20058;-60
2023/03/16 08:02:02;;;;;;;6.03;4.65;;;5.70;99.90;;;;;;10065126;28;20127;-61
2023/03/16 08:06:58;;;;;;;7.28;4.43;;;5.70;99.90;;;;;;10063909;28;20084;-65
2023/03/16 08:11:49;;;;;;;6.22;3.88;;;6.00;99.90;;;;;;10060814;28;20034;-60
2023/03/16 08:16:40;;;;;;;7.82;5.32;;;6.10;99.90;;;;;;10062179;28;20078;-62
2023/03/16 08:21:31;;;;;;;9.27;4.80;;;6.10;99.90;;;;;;10061006;28;20147;-61
2023/03/16 08:26:23;;;;;;;4.15;3.28;;;6.20;99.90;;;;;;10064131;28;20025;-60
2023/03/16 08:31:14;;;;;;;6.18;3.58;;;6.30;99.90;;;;;;10061785;28;20029;-61
2023/03/16 08:36:06;;;;;;;4.40;3.47;;;6.60;99.90;;;;;;10060784;28;20021;-60
2023/03/16 08:40:57;;;;;;;6.28;3.90;;;6.90;99.90;;;;;;10061270;28;20546;-61
2023/03/16 08:45:48;;;;;;;5.38;3.50;;;7.10;99.90;;;;;;10061066;28;20058;-62
2023/03/16 08:50:42;;;;;;;4.60;2.95;;;7.20;99.90;;;;;;10062596;28;20186;-61
2023/03/16 08:55:34;;;;;;;6.32;3.05;;;7.50;99.90;;;;;;10057976;28;20021;-61
2023/03/16 09:00:25;;;;;;;3.72;3.00;;;7.70;99.90;;;;;;10060681;28;20116;-61
2023/03/16 09:05:17;;;;;;;4.65;2.75;;;8.10;99.90;;;;;;10066123;28;20103;-63
2023/03/16 09:10:12;;;;;;;3.70;2.90;;;8.00;99.90;;;;;;10072097;28;20443;-62
2023/03/16 09:15:04;;;;;;;7.13;3.93;;;7.70;99.90;;;;;;10059853;28;20025;-59
2023/03/16 09:19:54;;;;;;;7.47;3.05;;;7.80;99.90;;;;;;10060420;28;20025;-61
2023/03/16 09:24:47;;;;;;;3.30;2.38;;;8.00;99.90;;;;;;10070606;28;20025;-63
2023/03/16 09:29:37;;;;;;;3.92;2.50;;;8.00;99.90;;;;;;10065686;28;20068;-59
2023/03/16 09:34:28;;;;;;;4.95;2.75;;;8.10;99.90;;;;;;10056229;28;20068;-60
2023/03/16 09:39:19;;;;;;;6.45;3.25;;;8.20;99.90;;;;;;10055785;28;20025;-59
2023/03/16 09:44:19;;;;;;;4.88;3.08;;;8.40;99.90;;;;;;10058492;28;20448;-65
2023/03/16 09:49:17;;;;;;;4.63;2.13;;;8.60;99.90;;;;;;10057224;28;20063;-63
2023/03/16 09:54:41;;;;;;;5.07;2.92;;;8.60;99.90;;;;;;10055918;28;20029;-64
2023/03/16 09:59:31;;;;;;;4.35;2.50;;;8.80;99.90;;;;;;10055607;28;20017;-63
2023/03/16 10:04:44;;;;;;;4.20;2.55;;;8.90;99.90;;;;;;10071710;28;20028;-60
2023/03/16 10:10:01;;;;;;;4.05;2.33;;;8.90;99.90;;;;;;10057161;28;20072;-65
2023/03/16 10:15:15;;;;;;;3.72;1.77;;;9.00;99.90;;;;;;10074813;28;20139;-62
2023/03/16 10:20:13;;;;;;;4.95;2.15;;;9.10;99.90;;;;;;10092727;28;20035;-63
2023/03/16 10:25:13;;;;;;;3.53;1.98;;;9.20;99.90;;;;;;10098605;28;20487;-65
2023/03/16 10:30:26;;;;;;;6.18;2.85;;;9.30;99.90;;;;;;10098585;28;20498;-62
2023/03/16 10:35:38;;;;;;;3.50;1.92;;;9.50;99.90;;;;;;10081590;28;20036;-64
2023/03/16 10:40:37;;;;;;;2.78;1.50;;;9.70;99.90;;;;;;10056333;28;20102;-58
2023/03/16 10:45:30;;;;;;;2.17;1.60;;;10.00;99.90;;;;;;10059595;28;20041;-58
2023/03/16 10:50:24;;;;;;;6.45;3.72;;;10.20;99.90;;;;;;10063144;28;20466;-58
2023/03/16 10:55:31;;;;;;;4.53;1.98;;;10.50;99.90;;;;;;10066452;28;20072;-59
2023/03/16 11:00:27;;;;;;;3.75;2.13;;;10.60;99.90;;;;;;10065183;28;20159;-59
2023/03/16 11:05:24;;;;;;;3.53;1.90;;;10.50;99.90;;;;;;10066892;28;20511;-59
2023/03/16 11:10:31;;;;;;;3.25;1.60;;;10.70;99.90;;;;;;10066921;28;20026;-63
2023/03/16 11:15:22;;;;;;;4.68;2.20;;;10.70;99.90;;;;;;10061673;28;20488;-60
2023/03/16 11:20:27;;;;;;;7.32;3.50;;;10.50;99.90;;;;;;10065000;28;20053;-59
2023/03/16 11:25:27;;;;;;;6.50;2.80;;;10.50;99.90;;;;;;10065307;28;20036;-55
2023/03/16 11:30:35;;;;;;;8.77;3.13;;;10.60;99.90;;;;;;10062162;28;20033;-57
2023/03/16 11:35:53;;;;;;;6.18;2.65;;;10.60;99.90;;;;;;10061407;28;20124;-58
2023/03/16 11:41:18;;;;;;;7.50;3.35;;;10.60;99.90;;;;;;10053080;28;20041;-65
2023/03/16 11:46:21;;;;;;;6.55;4.40;;;10.80;99.90;;;;;;10029190;28;20064;-68
2023/03/16 11:51:34;;;;;;;10.57;3.92;;;10.90;99.90;;;;;;10063334;28;20025;-68
2023/03/16 11:56:48;;;;;;;5.05;2.88;;;11.10;99.90;;;;;;10060305;28;20017;-55
2023/03/16 12:01:55;;;;;;;3.72;1.52;;;11.30;99.90;;;;;;10062013;28;20017;-65
2023/03/16 12:06:51;;;;;;;4.82;1.70;;;11.40;99.90;;;;;;10062303;28;20045;-64
2023/03/16 12:11:51;;;;;;;2.30;1.48;;;11.50;99.90;;;;;;10061793;28;20372;-59
2023/03/16 12:16:43;;;;;;;3.50;1.15;;;11.60;99.90;;;;;;10062369;28;20029;-61
2023/03/16 12:21:42;;;;;;;2.83;1.40;;;11.80;99.90;;;;;;10059843;28;20064;-59
2023/03/16 12:26:40;;;;;;;3.90;1.77;;;12.10;99.90;;;;;;10081764;28;20251;-56
2023/03/16 12:31:40;;;;;;;3.17;1.58;;;12.20;99.90;;;;;;10071106;28;20117;-59
2023/03/16 12:36:46;;;;;;;5.03;2.50;;;12.40;99.90;;;;;;10069225;28;20176;-63
2023/03/16 12:41:58;;;;;;;3.22;1.98;;;12.50;99.90;;;;;;10068928;28;20029;-60
2023/03/16 12:47:18;;;;;;;4.15;2.25;;;12.80;99.90;;;;;;10086401;28;20191;-60
2023/03/16 12:52:11;;;;;;;6.93;2.45;;;13.30;99.90;;;;;;10031205;28;20061;-61
2023/03/16 12:57:05;;;;;;;4.72;1.75;;;13.80;99.90;;;;;;10086205;28;20013;-61
2023/03/16 13:01:57;;;;;;;1.88;1.10;;;14.30;99.90;;;;;;10087925;28;20036;-61
2023/03/16 13:07:03;;;;;;;2.25;1.10;;;14.60;99.90;;;;;;10080013;28;20282;-61
2023/03/16 13:11:55;;;;;;;2.25;1.45;;;15.00;99.80;;;;;;10080959;28;20025;-63
2023/03/16 13:16:46;;;;;;;4.15;2.05;;;15.30;99.80;;;;;;10099683;28;20037;-63
2023/03/16 13:21:41;;;;;;;2.60;1.40;;;15.80;99.50;;;;;;10094288;28;20056;-62
2023/03/16 13:26:39;;;;;;;1.70;1.15;;;16.20;99.30;;;;;;10097313;28;20017;-61
2023/03/16 13:31:40;;;;;;;2.55;1.52;;;16.70;98.90;;;;;;10090596;28;20044;-62
2023/03/16 13:36:32;;;;;;;2.17;0.90;;;17.00;98.70;;;;;;10085008;28;20427;-63
2023/03/16 13:41:23;;;;;;;1.15;0.95;;;17.40;98.40;;;;;;10081232;28;20029;-62
2023/03/16 13:46:20;;;;;;;3.45;1.30;;;18.10;97.80;;;;;;10082576;28;20072;-64
2023/03/16 13:51:15;;;;;;;1.98;1.30;;;18.70;96.70;;;;;;10080595;28;20051;-65
2023/03/16 13:56:06;;;;;;;3.20;1.45;;;19.50;95.80;;;;;;10091391;28;20056;-62
2023/03/16 14:00:59;;;;;;;2.30;1.05;;;19.90;94.80;;;;;;10073091;28;20126;-60
2023/03/16 14:05:49;;;;;;;1.60;1.17;;;20.50;93.70;;;;;;10057281;28;20029;-64
2023/03/16 14:10:42;;;;;;;3.92;1.40;;;20.80;92.70;;;;;;10059849;28;20066;-61
2023/03/16 14:15:35;;;;;;;2.30;1.27;;;20.80;91.80;;;;;;10063651;28;20155;-61
2023/03/16 14:20:26;;;;;;;3.00;1.10;;;20.50;91.00;;;;;;10069142;28;20111;-58
2023/03/16 14:25:24;;;;;;;1.58;1.30;;;20.30;90.40;;;;;;10074210;28;20491;-61
2023/03/16 14:30:24;;;;;;;2.53;1.80;;;20.00;89.30;;;;;;10069083;28;20038;-59
2023/03/16 14:35:20;;;;;;;2.67;1.63;;;19.80;88.40;;;;;;10078045;28;20021;-61
2023/03/16 14:40:29;;;;;;;2.40;1.33;;;19.00;87.60;;;;;;10074502;28;20038;-62
2023/03/16 14:45:21;;;;;;;3.40;1.40;;;17.90;87.00;;;;;;10073577;28;20439;-62
2023/03/16 14:50:20;;;;;;;2.28;1.30;;;17.30;87.00;;;;;;10079839;28;20033;-60
2023/03/16 14:55:14;;;;;;;3.17;1.38;;;17.00;86.70;;;;;;10071706;28;20116;-65
2023/03/16 15:00:12;;;;;;;3.35;1.20;;;16.80;86.30;;;;;;10075441;28;20052;-61
2023/03/16 15:05:03;;;;;;;2.08;1.23;;;16.80;86.10;;;;;;10069361;28;20022;-60
2023/03/16 15:09:57;;;;;;;2.03;1.25;;;16.40;86.00;;;;;;10078662;28;20029;-61
2023/03/16 15:19:57;;;;;;;2.63;1.80;;;15.80;86.40;;;;;;10072477;28;20037;-63
2023/03/16 15:24:48;;;;;;;1.90;1.23;;;15.80;86.30;;;;;;10075361;28;20487;-60
2023/03/16 15:29:38;;;;;;;1.98;1.45;;;15.90;86.20;;;;;;10072591;28;20033;-62
2023/03/16 15:34:29;;;;;;;2.00;1.30;;;16.10;86.00;;;;;;10068627;28;20097;-63
2023/03/16 15:39:23;;;;;;;1.63;1.35;;;16.10;86.10;;;;;;10070459;28;20083;-61
2023/03/16 15:44:14;;;;;;;4.10;1.65;;;16.30;86.00;;;;;;10063799;28;20030;-63
2023/03/16 15:49:05;;;;;;;2.50;1.40;;;16.30;86.10;;;;;;10066278;28;20044;-60
2023/03/16 15:53:59;;;;;;;2.28;1.50;;;16.20;86.40;;;;;;10064449;28;20040;-59
2023/03/16 15:58:50;;;;;;;2.35;1.33;;;16.60;86.50;;;;;;10065052;28;20108;-63
2023/03/16 16:03:40;;;;;;;3.22;1.70;;;16.70;85.90;;;;;;10062031;28;20120;-60
2023/03/16 16:08:31;;;;;;;3.95;1.40;;;16.70;85.90;;;;;;10063585;28;20021;-58
2023/03/16 16:13:27;;;;;;;5.18;1.77;;;16.70;86.00;;;;;;10063868;28;20025;-60
2023/03/16 16:18:33;;;;;;;2.90;1.60;;;16.50;86.20;;;;;;10062846;28;20480;-59
2023/03/16 16:23:25;;;;;;;3.13;1.58;;;16.10;86.50;;;;;;10059619;28;20062;-59
2023/03/16 16:28:28;;;;;;;2.28;1.95;;;15.70;86.90;;;;;;10064642;28;20017;-60
2023/03/16 16:33:33;;;;;;;3.58;1.50;;;15.50;86.80;;;;;;10062232;28;20103;-60
2023/03/16 16:38:24;;;;;;;3.97;1.50;;;15.30;87.50;;;;;;10069080;28;20025;-59
2023/03/16 16:43:43;;;;;;;4.82;1.40;;;15.20;87.00;;;;;;10096620;28;20504;-63
2023/03/16 16:48:37;;;;;;;2.53;1.25;;;15.10;86.90;;;;;;10087604;28;20493;-60
2023/03/16 16:53:28;;;;;;;3.95;2.25;;;15.10;86.90;;;;;;10091319;28;20025;-59
2023/03/16 16:58:19;;;;;;;2.58;1.80;;;15.10;86.90;;;;;;10083193;28;20174;-58
2023/03/16 17:03:20;;;;;;;2.70;1.55;;;14.90;87.00;;;;;;10086883;28;20991;-59
2023/03/16 17:08:11;;;;;;;3.05;1.80;;;14.70;87.20;;;;;;10094890;28;20025;-59
2023/03/16 17:13:03;;;;;;;3.30;1.98;;;14.50;87.40;;;;;;10090675;28;20434;-60
2023/03/16 17:18:03;;;;;;;2.60;2.38;;;14.30;87.60;;;;;;10076442;28;20167;-60
2023/03/16 17:22:56;;;;;;;2.75;1.90;;;14.00;87.80;;;;;;10088232;28;20102;-61
2023/03/16 17:27:49;;;;;;;2.90;1.60;;;13.80;87.90;;;;;;10100889;28;20060;-60
2023/03/16 17:32:39;;;;;;;2.70;1.63;;;13.50;88.00;;;;;;10072330;28;20038;-59
2023/03/16 17:37:30;;;;;;;2.95;1.85;;;13.40;88.20;;;;;;10085077;28;20022;-59
2023/03/16 17:42:21;;;;;;;2.88;1.52;;;13.20;88.30;;;;;;10090507;28;20446;-58
2023/03/16 17:47:19;;;;;;;3.20;1.92;;;13.00;88.40;;;;;;10090472;28;20041;-60
2023/03/16 17:52:22;;;;;;;4.95;1.98;;;12.90;88.60;;;;;;10091274;28;20036;-57
2023/03/16 17:57:28;;;;;;;4.43;1.95;;;12.80;88.80;;;;;;10094355;28;20224;-61
2023/03/16 18:02:31;;;;;;;;;;;12.70;89.00;;;;;;10092896;28;20398;-60
2023/03/16 18:07:22;;;;;;;1.98;1.73;;;12.60;89.20;;;;;;10063007;28;19909;-58
2023/03/16 18:12:12;;;;;;;7.35;1.88;;;12.60;89.30;;;;;;10060419;28;20034;-58
2023/03/16 18:17:20;;;;;;;3.88;2.72;;;12.50;89.40;;;;;;10064835;28;20119;-59
2023/03/16 18:22:19;;;;;;;4.80;2.63;;;12.40;89.80;;;;;;10061133;28;20120;-59
2023/03/16 18:27:10;;;;;;;4.38;2.83;;;12.40;90.00;;;;;;10080204;28;20021;-60
2023/03/16 18:32:01;;;;;;;4.15;1.90;;;12.30;90.10;;;;;;10064213;28;20037;-65
2023/03/16 18:36:52;;;;;;;4.70;2.88;;;12.30;90.30;;;;;;10062751;28;20018;-58
2023/03/16 18:41:45;;;;;;;13.48;3.33;;;12.30;90.40;;;;;;10058832;28;20030;-60
2023/03/16 18:46:37;;;;;;;4.45;2.80;;;12.20;90.50;;;;;;10056480;28;20452;-60
2023/03/16 18:51:29;;;;;;;3.92;2.67;;;12.20;90.70;;;;;;10063973;28;20079;-58
2023/03/16 18:56:25;;;;;;;7.00;4.10;;;12.10;90.80;;;;;;10056480;28;20025;-59
2023/03/16 19:01:29;;;;;;;6.75;2.95;;;12.10;90.90;;;;;;10059538;28;20025;-59
2023/03/16 19:06:28;;;;;;;6.88;3.83;;;12.10;91.10;;;;;;10062332;28;20452;-59
2023/03/16 19:11:19;;;;;;;6.15;3.58;;;12.00;91.20;;;;;;10062663;28;20040;-60
2023/03/16 19:16:21;;;;;;;5.82;3.90;;;12.00;91.30;;;;;;10069862;28;20026;-62
2023/03/16 19:21:18;;;;;;;6.53;3.15;;;12.00;91.50;;;;;;10070335;28;20057;-61
2023/03/16 19:26:09;;;;;;;9.30;4.30;;;11.90;91.60;;;;;;10063211;28;20113;-58
2023/03/16 19:31:13;;;;;;;8.05;4.88;;;11.80;91.70;;;;;;10067871;28;20109;-64
2023/03/16 19:36:10;;;;;;;8.63;4.38;;;11.80;91.80;;;;;;10067738;28;20045;-64
2023/03/16 19:41:01;;;;;;;7.18;4.47;;;11.70;91.90;;;;;;10069390;28;20028;-60
2023/03/16 19:45:53;;;;;;;8.50;4.38;;;11.70;92.10;;;;;;10064257;28;20053;-60
2023/03/16 19:50:44;;;;;;;14.20;8.68;;;11.70;92.20;;;;;;10067985;28;20107;-59
2023/03/16 19:55:36;;;;;;;13.00;6.65;;;11.70;92.30;;;;;;10081730;28;20624;-60
2023/03/16 20:00:29;;;;;;;8.38;4.20;;;11.60;92.40;;;;;;10077388;28;20049;-60
2023/03/16 20:05:23;;;;;;;11.70;5.40;;;11.60;92.50;;;;;;10077066;28;20436;-60
2023/03/16 20:10:22;;;;;;;9.30;4.25;;;11.60;92.60;;;;;;10071565;28;20123;-58
2023/03/16 20:15:16;;;;;;;11.52;6.18;;;11.60;92.70;;;;;;10091587;28;20471;-62
2023/03/16 20:20:21;;;;;;;10.70;4.95;;;11.60;92.80;;;;;;10094340;28;20244;-63
2023/03/16 20:25:12;;;;;;;9.25;5.47;;;11.50;93.00;;;;;;10089793;28;20025;-64
2023/03/16 20:30:12;;;;;;;10.65;6.35;;;11.50;93.10;;;;;;10087285;28;20034;-62
2023/03/16 20:35:03;;;;;;;14.15;8.55;;;11.50;93.10;;;;;;10079447;28;20110;-61
2023/03/16 20:39:57;;;;;;;11.85;6.38;;;11.40;93.30;;;;;;10075132;28;20054;-63
2023/03/16 20:44:48;;;;;;;7.95;4.30;;;11.40;93.40;;;;;;10056397;28;20310;-63
2023/03/16 20:49:39;;;;;;;10.55;6.15;;;11.30;93.50;;;;;;10064807;28;20270;-61
2023/03/16 20:54:30;;;;;;;10.35;5.38;;;11.30;93.70;;;;;;10069062;28;20083;-63
2023/03/16 20:59:23;;;;;;;6.13;4.70;;;11.30;93.70;;;;;;10045592;28;20715;-62
2023/03/16 21:04:21;;;;;;;7.13;5.03;;;11.20;93.90;;;;;;10058196;28;20033;-64
2023/03/16 21:09:11;;;;;;;6.75;3.92;;;11.00;94.00;;;;;;10076609;28;20514;-62
2023/03/16 21:14:04;;;;;;;8.68;4.82;;;11.00;94.30;;;;;;10060893;28;20049;-62
2023/03/16 21:18:54;;;;;;;6.93;3.83;;;11.00;94.40;;;;;;10046098;28;20468;-61
2023/03/16 21:23:45;;;;;;;4.65;3.72;;;11.00;94.50;;;;;;10059831;28;20030;-62
2023/03/16 21:28:36;;;;;;;6.80;4.28;;;10.90;94.70;;;;;;10063277;28;20022;-61
2023/03/16 21:33:34;;;;;;;5.30;3.50;;;10.90;94.80;;;;;;10056200;28;20099;-60
2023/03/16 21:38:26;;;;;;;6.70;4.00;;;10.80;95.00;;;;;;10065304;28;20482;-60
2023/03/16 21:43:17;;;;;;;8.65;4.03;;;10.80;95.10;;;;;;10065370;28;20131;-59
2023/03/16 21:48:24;;;;;;;8.70;4.78;;;10.90;95.30;;;;;;10055432;28;20499;-61
2023/03/16 21:53:21;;;;;;;5.40;3.80;;;10.70;95.50;;;;;;10064186;28;20250;-66
2023/03/16 21:58:12;;;;;;;8.20;4.45;;;10.80;95.70;;;;;;10058624;28;20399;-65
2023/03/16 22:03:06;;;;;;;7.25;3.20;;;10.80;95.80;;;;;;10060493;28;20033;-63
2023/03/16 22:07:58;;;;;;;4.38;3.47;;;10.70;96.00;;;;;;10061049;28;20103;-60
2023/03/16 22:12:48;;;;;;;6.18;3.58;;;10.50;96.30;;;;;;10056753;28;20025;-61
2023/03/16 22:17:39;;;;;;;6.63;3.40;;;10.50;96.40;;;;;;10064366;28;20026;-59
2023/03/16 22:22:31;;;;;;;4.15;3.00;;;10.40;96.50;;;;;;10061445;28;20510;-60
2023/03/16 22:27:24;;;;;;;7.90;3.47;;;10.50;96.50;;;;;;10060379;28;20017;-59
2023/03/16 22:32:19;;;;;;;8.15;3.97;;;10.50;96.60;;;;;;10061978;28;20087;-58
2023/03/16 22:37:15;;;;;;;7.93;3.28;;;10.50;96.70;;;;;;10062823;28;20296;-59
2023/03/16 22:42:32;;;;;;;5.88;3.80;;;10.40;97.10;;;;;;10063261;28;20028;-59
2023/03/16 22:47:26;;;;;;;5.88;3.25;;;10.50;96.90;;;;;;10064301;28;20049;-59
2023/03/16 22:52:17;;;;;;;7.55;3.40;;;10.40;97.00;;;;;;10071961;28;20129;-60
2023/03/16 22:57:15;;;;;;;6.38;3.72;;;10.30;97.10;;;;;;10067627;28;20489;-63
2023/03/16 23:02:13;;;;;;;10.35;4.63;;;10.30;97.20;;;;;;10067140;28;20402;-63
2023/03/16 23:07:12;;;;;;;10.55;5.78;;;10.20;97.30;;;;;;10066563;28;20577;-60
2023/03/16 23:12:03;;;;;;;12.93;5.57;;;10.30;97.40;;;;;;10064069;28;20079;-61
2023/03/16 23:16:54;;;;;;;13.50;6.70;;;10.20;97.50;;;;;;10067159;28;20099;-61
2023/03/16 23:21:45;;;;;;;11.07;6.72;;;10.20;97.60;;;;;;10067853;28;20656;-61
2023/03/16 23:26:36;;;;;;;10.63;5.25;;;10.10;97.70;;;;;;10065520;28;20404;-60
2023/03/16 23:31:28;;;;;;;10.77;4.68;;;9.90;97.80;;;;;;10065881;28;20361;-60
2023/03/16 23:36:23;;;;;;;9.60;4.22;;;9.80;98.00;;;;;;10064912;28;20064;-62
2023/03/16 23:41:19;;;;;;;5.18;3.35;;;9.80;98.10;;;;;;10068521;28;20025;-59
2023/03/16 23:46:11;;;;;;;4.35;2.67;;;9.70;98.20;;;;;;10062380;28;20171;-60
2023/03/16 23:51:02;;;;;;;4.35;2.58;;;9.80;98.20;;;;;;10065128;28;20043;-58
2023/03/16 23:55:53;;;;;;;4.53;2.83;;;9.80;98.20;;;;;;10064843;28;20032;-58
